Time;durP1;ratioP1;P1;durP2;ratioP2;P2;SDS_P1;SDS_P2;PMS_P1;PMS_P2;Temp;Humidity;BMP_temperature;BMP_pressure;BME280_temperature;BME280_humidity;BME280_pressure;Samples;Min_cycle;Max_cycle;Signal;HPM_P1;HPM_P2
2022/12/06 04:56:42;;;;;;;96.65;63.35;;;;;;;4.39;100.00;101898.69;5131814;27;20418;-85
2022/12/06 04:59:15;;;;;;;92.22;61.13;;;;;;;4.43;100.00;101907.97;5131381;27;20502;-86
2022/12/06 05:01:46;;;;;;;104.43;72.70;;;;;;;4.46;100.00;101902.44;5114947;27;20130;-86
2022/12/06 05:04:25;;;;;;;101.28;72.68;;;;;;;4.40;100.00;101911.72;5117386;28;20116;-86
2022/12/06 05:06:54;;;;;;;89.97;56.95;;;;;;;4.42;100.00;101912.41;5126267;28;20449;-84
2022/12/06 05:09:20;;;;;;;96.90;60.72;;;;;;;4.32;100.00;101914.19;5115420;27;20049;-84
2022/12/06 05:11:49;;;;;;;95.13;57.92;;;;;;;4.39;100.00;101912.69;5118392;28;20058;-86
2022/12/06 05:14:15;;;;;;;93.03;54.90;;;;;;;4.38;100.00;101907.56;5115669;28;20047;-87
2022/12/06 05:16:49;;;;;;;90.38;58.17;;;;;;;4.48;100.00;101898.72;5120066;28;20051;-88
2022/12/06 05:19:16;;;;;;;98.97;61.90;;;;;;;4.66;100.00;101895.38;5118605;28;20051;-84
2022/12/06 05:21:43;;;;;;;97.57;60.05;;;;;;;4.46;100.00;101897.19;5121483;27;20472;-84
2022/12/06 05:24:10;;;;;;;95.28;54.13;;;;;;;4.44;100.00;101893.84;5123607;28;20040;-86
2022/12/06 05:26:37;;;;;;;86.65;56.95;;;;;;;4.57;100.00;101894.44;5123007;28;20118;-84
2022/12/06 05:29:05;;;;;;;97.57;54.22;;;;;;;4.59;100.00;101895.09;5126053;27;20495;-85
2022/12/06 05:31:35;;;;;;;88.68;53.55;;;;;;;4.58;100.00;101890.81;5117040;28;20108;-84
2022/12/06 05:34:02;;;;;;;83.18;53.60;;;;;;;4.51;100.00;101901.06;5112653;28;20060;-87
2022/12/06 05:36:36;;;;;;;93.22;53.28;;;;;;;4.40;100.00;101895.09;5117316;27;20445;-84
2022/12/06 05:39:03;;;;;;;90.85;52.67;;;;;;;4.42;100.00;101887.88;5121842;28;20052;-84
2022/12/06 05:41:29;;;;;;;85.07;53.88;;;;;;;4.40;100.00;101882.78;5119139;28;20138;-83
2022/12/06 05:43:57;;;;;;;82.07;49.13;;;;;;;4.59;100.00;101887.22;5126889;27;20051;-84
2022/12/06 05:46:28;;;;;;;78.32;51.53;;;;;;;4.45;100.00;101882.34;5120806;28;20074;-84
2022/12/06 05:48:58;;;;;;;80.57;49.58;;;;;;;4.58;100.00;101891.66;5109773;28;20460;-84
2022/12/06 05:51:25;;;;;;;80.45;51.70;;;;;;;4.63;100.00;101882.50;5122396;28;20066;-86
2022/12/06 05:53:51;;;;;;;88.28;52.92;;;;;;;4.62;100.00;101873.78;5114626;27;20463;-88
2022/12/06 05:59:03;;;;;;;87.75;55.00;;;;;;;4.64;100.00;101876.28;5086942;28;20060;-87
2022/12/06 06:01:32;;;;;;;84.78;52.17;;;;;;;4.79;100.00;101874.91;5093789;28;20048;-86
2022/12/06 06:03:58;;;;;;;96.55;57.13;;;;;;;4.74;100.00;101874.47;5094551;28;20446;-86
2022/12/06 06:06:28;;;;;;;102.07;60.88;;;;;;;4.73;100.00;101891.25;5092711;28;20056;-86
2022/12/06 06:08:55;;;;;;;110.68;65.18;;;;;;;4.78;100.00;101889.88;5084403;28;20052;-85
2022/12/06 06:11:21;;;;;;;103.32;61.60;;;;;;;4.79;100.00;101898.59;5087058;28;20053;-85
2022/12/06 06:13:48;;;;;;;112.15;65.15;;;;;;;4.67;100.00;101890.00;5081682;28;20389;-84
2022/12/06 06:16:15;;;;;;;110.68;64.88;;;;;;;4.80;100.00;101892.34;5084918;28;20040;-84
2022/12/06 06:18:43;;;;;;;106.03;56.15;;;;;;;4.76;100.00;101894.44;5085227;28;20452;-86
2022/12/06 06:21:24;;;;;;;99.80;57.65;;;;;;;4.82;100.00;101887.78;5128942;27;20432;-86
2022/12/06 06:23:51;;;;;;;134.52;68.35;;;;;;;4.74;100.00;101885.81;5111947;28;20056;-86
2022/12/06 06:26:21;;;;;;;167.77;74.60;;;;;;;4.74;100.00;101888.47;5112011;28;20048;-86
2022/12/06 06:28:48;;;;;;;149.10;77.97;;;;;;;4.93;100.00;101874.47;5111927;28;20456;-86
2022/12/06 06:31:14;;;;;;;126.13;61.97;;;;;;;4.93;100.00;101863.09;5111677;28;20052;-88
2022/12/06 06:33:42;;;;;;;134.10;67.00;;;;;;;4.99;100.00;101879.19;5101777;28;20056;-86
2022/12/06 06:36:10;;;;;;;128.07;65.85;;;;;;;4.90;100.00;101872.13;5111184;28;20056;-86
2022/12/06 06:41:44;;;;;;;107.97;59.42;;;;;;;4.88;100.00;101866.16;5115914;27;20753;-85
2022/12/06 06:44:11;;;;;;;113.75;66.43;;;;;;;4.93;100.00;101863.94;5084798;28;20055;-86
2022/12/06 06:46:38;;;;;;;106.35;68.38;;;;;;;4.89;100.00;101859.09;5083131;28;20044;-87
2022/12/06 06:49:05;;;;;;;103.97;62.90;;;;;;;4.83;100.00;101858.66;5081249;28;20056;-85
2022/12/06 06:51:33;;;;;;;113.53;66.53;;;;;;;4.89;100.00;101864.34;5070332;28;20059;-87
2022/12/06 06:54:00;;;;;;;108.88;63.05;;;;;;;4.75;100.00;101865.59;5072637;28;20468;-88
2022/12/06 06:56:26;;;;;;;114.53;65.63;;;;;;;4.78;100.00;101865.31;5082996;28;20053;-87
2022/12/06 06:58:55;;;;;;;103.18;66.25;;;;;;;4.96;100.00;101858.41;5085274;28;20049;-88
2022/12/06 07:01:24;;;;;;;86.00;59.03;;;;;;;5.04;100.00;101853.22;5079752;28;20041;-85
2022/12/06 07:03:51;;;;;;;73.65;57.33;;;;;;;4.94;100.00;101841.06;5079262;28;20048;-86
2022/12/06 07:06:18;;;;;;;75.30;58.63;;;;;;;5.07;100.00;101854.75;5082782;28;20123;-85
2022/12/06 07:08:46;;;;;;;88.50;64.80;;;;;;;5.01;100.00;101839.53;5081276;28;20067;-85
2022/12/06 07:11:14;;;;;;;88.47;65.65;;;;;;;5.04;100.00;101840.06;5086983;28;20048;-86
2022/12/06 07:13:42;;;;;;;84.88;63.45;;;;;;;5.09;100.00;101857.25;5083803;28;20481;-85
2022/12/06 07:16:14;;;;;;;89.07;63.05;;;;;;;5.14;100.00;101857.66;5082191;28;20059;-86
2022/12/06 07:18:42;;;;;;;;;;;;;;;5.26;100.00;101854.72;5082310;28;20049;-86
2022/12/06 07:21:13;;;;;;;100.85;67.32;;;;;;;5.17;100.00;101847.66;5079845;28;20019;-85
2022/12/06 07:23:40;;;;;;;99.13;61.83;;;;;;;5.08;100.00;101851.13;5080023;28;20106;-88
2022/12/06 07:26:09;;;;;;;95.30;61.33;;;;;;;5.15;100.00;101854.88;5081438;28;20469;-86
2022/12/06 07:28:38;;;;;;;77.60;57.15;;;;;;;5.15;100.00;101846.16;5073536;28;20385;-87
2022/12/06 07:31:10;;;;;;;75.45;59.70;;;;;;;5.25;100.00;101847.78;5081918;28;20480;-86
2022/12/06 07:33:37;;;;;;;74.25;57.45;;;;;;;5.38;100.00;101857.16;5072785;28;20059;-87
2022/12/06 07:36:04;;;;;;;76.22;59.22;;;;;;;5.33;100.00;101851.50;5081924;28;20102;-86
2022/12/06 07:38:33;;;;;;;68.93;56.40;;;;;;;5.17;100.00;101865.25;5075336;28;20052;-87
2022/12/06 07:44:59;;;;;;;73.45;59.50;;;;;;;5.42;100.00;101871.72;5084040;28;20142;-86
2022/12/06 07:46:37;;;;;;;61.35;54.20;;;;;;;5.18;100.00;101861.66;5079969;28;20113;-88
2022/12/06 07:49:05;;;;;;;62.65;53.70;;;;;;;5.40;100.00;101861.31;5081637;28;20056;-87
2022/12/06 07:51:32;;;;;;;59.58;53.13;;;;;;;5.40;100.00;101861.31;5074901;28;20465;-85
2022/12/06 07:53:58;;;;;;;60.30;51.33;;;;;;;5.21;100.00;101853.50;5064633;28;20037;-86
2022/12/06 07:56:25;;;;;;;58.63;50.60;;;;;;;5.32;100.00;101855.94;5068184;28;20053;-87
2022/12/06 07:58:53;;;;;;;55.65;49.08;;;;;;;5.45;100.00;101859.09;5072642;28;20468;-86
2022/12/06 08:01:23;;;;;;;59.78;50.22;;;;;;;5.44;100.00;101859.22;5063207;28;20508;-86
2022/12/06 08:04:01;;;;;;;66.13;51.90;;;;;;;5.60;100.00;101853.31;5064042;28;20131;-88
2022/12/06 08:06:28;;;;;;;60.63;52.15;;;;;;;5.62;100.00;101846.09;5067642;28;20040;-87
2022/12/06 08:11:37;;;;;;;53.88;47.63;;;;;;;5.55;100.00;101831.88;5103098;27;20380;-87
2022/12/06 08:14:05;;;;;;;52.38;47.03;;;;;;;5.57;100.00;101837.81;5090914;28;20389;-86
2022/12/06 08:16:35;;;;;;;51.35;46.42;;;;;;;5.55;100.00;101829.22;5091360;28;20056;-87
2022/12/06 08:19:02;;;;;;;54.65;48.95;;;;;;;5.39;100.00;101837.75;5091006;28;20397;-87
2022/12/06 08:21:30;;;;;;;54.63;48.72;;;;;;;5.64;100.00;101837.09;5090794;28;20059;-86
2022/12/06 08:23:57;;;;;;;55.90;47.75;;;;;;;5.56;100.00;101831.72;5090954;28;20055;-87
2022/12/06 08:26:24;;;;;;;50.55;45.60;;;;;;;5.48;100.00;101839.53;5091640;28;20055;-85
2022/12/06 08:28:52;;;;;;;54.75;49.00;;;;;;;5.61;100.00;101850.56;5091263;28;20048;-85
2022/12/06 08:31:21;;;;;;;52.33;46.78;;;;;;;5.71;100.00;101832.06;5090860;28;20051;-86
2022/12/06 08:33:49;;;;;;;53.58;47.78;;;;;;;5.77;100.00;101846.47;5081325;28;20075;-88
2022/12/06 08:36:17;;;;;;;53.60;48.10;;;;;;;5.80;100.00;101839.06;5091119;28;20056;-86
2022/12/06 08:39:03;;;;;;;54.10;48.65;;;;;;;5.99;100.00;101845.25;5090588;28;20052;-87
2022/12/06 08:44:16;;;;;;;52.95;47.72;;;;;;;5.94;100.00;101827.25;5090573;28;20055;-85
2022/12/06 08:46:43;;;;;;;52.30;46.75;;;;;;;5.93;100.00;101831.69;5090289;28;20526;-87
2022/12/06 08:49:11;;;;;;;55.03;49.33;;;;;;;6.12;100.00;101829.91;5090228;28;20072;-87
2022/12/06 08:51:38;;;;;;;57.50;51.45;;;;;;;6.22;100.00;101822.75;5090508;28;20516;-86
2022/12/06 08:54:06;;;;;;;56.55;51.08;;;;;;;6.09;100.00;101827.56;5090560;28;20056;-87
2022/12/06 08:56:33;;;;;;;52.55;47.50;;;;;;;6.00;100.00;101825.84;5090889;28;20443;-86
2022/12/06 08:59:00;;;;;;;53.83;48.13;;;;;;;6.21;100.00;101812.34;5090411;28;20059;-87
2022/12/06 09:01:31;;;;;;;68.63;59.45;;;;;;;6.05;100.00;101811.22;5090484;28;20052;-86
2022/12/06 09:03:59;;;;;;;56.67;50.95;;;;;;;6.01;100.00;101793.19;5081695;28;20048;-85
2022/12/06 09:06:26;;;;;;;55.67;49.78;;;;;;;6.05;100.00;101786.63;5090174;28;20059;-87
2022/12/06 09:08:54;;;;;;;65.00;54.92;;;;;;;6.04;100.00;101793.72;5090182;28;20037;-87
2022/12/06 09:11:22;;;;;;;60.55;52.78;;;;;;;6.05;100.00;101787.47;5086001;28;20058;-86
2022/12/06 09:13:48;;;;;;;60.95;53.17;;;;;;;6.03;100.00;101785.97;5088900;28;20093;-88
2022/12/06 09:16:18;;;;;;;58.58;51.17;;;;;;;6.15;100.00;101782.94;5081614;28;20454;-87
2022/12/06 09:18:47;;;;;;;52.83;47.65;;;;;;;6.11;100.00;101778.97;5089558;28;20056;-86
2022/12/06 09:21:16;;;;;;;116.50;101.70;;;;;;;6.10;100.00;101776.47;5085456;28;20041;-85
2022/12/06 09:23:44;;;;;;;53.40;48.00;;;;;;;6.14;100.00;101772.53;5063444;28;20248;-85
2022/12/06 09:26:11;;;;;;;80.05;65.78;;;;;;;6.04;100.00;101763.88;5077108;28;20052;-85
2022/12/06 09:28:39;;;;;;;53.67;48.35;;;;;;;6.27;100.00;101761.63;5076438;28;20059;-85
2022/12/06 09:31:07;;;;;;;56.17;50.40;;;;;;;6.30;100.00;101763.97;5070206;28;20052;-87
2022/12/06 09:33:36;;;;;;;50.63;45.70;;;;;;;6.38;100.00;101756.94;5077038;28;20059;-87
2022/12/06 09:36:23;;;;;;;54.67;49.53;;;;;;;6.48;100.00;101750.75;5076821;28;20052;-86
2022/12/06 09:39:05;;;;;;;48.95;44.65;;;;;;;6.30;100.00;101746.31;5056550;28;20064;-87
2022/12/06 09:42:05;;;;;;;51.85;47.42;;;;;;;6.48;100.00;101743.66;5068691;28;20052;-86
2022/12/06 10:04:40;;;;;;;51.97;47.45;;;;;;;6.72;100.00;101694.59;5138009;22;20074;-86
2022/12/06 10:31:28;;;;;;;51.10;46.53;;;;;;;6.71;100.00;101670.03;4953215;28;20526;-88
2022/12/06 10:47:52;;;;;;;52.13;47.63;;;;;;;6.76;100.00;101651.91;5167453;27;20411;-93
2022/12/06 10:50:23;;;;;;;51.75;47.33;;;;;;;6.78;100.00;101657.03;5155190;27;20031;-93
2022/12/06 10:52:55;;;;;;;52.90;48.50;;;;;;;6.99;100.00;101667.19;5155341;28;20034;-93
2022/12/06 10:55:28;;;;;;;56.78;51.80;;;;;;;7.09;100.00;101649.41;5148185;28;20054;-92
2022/12/06 10:58:05;;;;;;;56.42;51.13;;;;;;;6.96;100.00;101643.72;5155634;28;20051;-93
2022/12/06 11:00:38;;;;;;;58.33;52.72;;;;;;;6.79;100.00;101629.66;5153331;28;20035;-95
2022/12/06 11:03:10;;;;;;;;;;;;;;;7.07;100.00;101644.25;5148475;28;20051;-95
2022/12/06 11:05:42;;;;;;;61.60;55.45;;;;;;;6.98;100.00;101629.38;5155090;28;19904;-94
2022/12/06 11:08:12;;;;;;;57.95;52.28;;;;;;;6.79;100.00;101621.72;5156131;28;20038;-95
2022/12/06 11:10:42;;;;;;;57.65;51.97;;;;;;;6.88;100.00;101615.47;5156006;28;20035;-95
2022/12/06 11:13:21;;;;;;;57.55;51.78;;;;;;;6.92;100.00;101623.91;5156487;28;20031;-95
2022/12/06 11:15:53;;;;;;;56.28;51.17;;;;;;;6.77;100.00;101615.75;5149370;28;20058;-95
2022/12/06 11:18:25;;;;;;;58.17;52.38;;;;;;;6.95;100.00;101623.59;5155874;28;20057;-95
2022/12/06 11:20:58;;;;;;;59.30;53.23;;;;;;;7.02;100.00;101614.03;5155841;27;20039;-95
2022/12/06 11:23:32;;;;;;;62.42;56.05;;;;;;;6.88;100.00;101612.84;5151418;28;20033;-95
2022/12/06 11:26:11;;;;;;;61.08;54.88;;;;;;;6.74;100.00;101605.53;5155124;28;20046;-95
2022/12/06 11:28:40;;;;;;;83.68;63.05;;;;;;;6.83;100.00;101600.09;5156111;28;20031;-95
2022/12/06 11:31:20;;;;;;;116.90;78.10;;;;;;;6.92;100.00;101582.47;5155552;28;20073;-95
2022/12/06 11:33:48;;;;;;;67.60;60.33;;;;;;;6.88;100.00;101587.25;5151986;28;20034;-95
2022/12/06 11:36:15;;;;;;;62.78;56.40;;;;;;;7.03;100.00;101584.81;5154379;28;20119;-95
2022/12/06 11:38:44;;;;;;;61.40;53.20;;;;;;;7.05;100.00;101590.78;5155759;28;20154;-93
2022/12/06 11:41:15;;;;;;;61.97;55.55;;;;;;;7.07;100.00;101582.69;5155435;28;20058;-94
2022/12/06 11:43:42;;;;;;;61.15;54.90;;;;;;;6.97;100.00;101574.91;5155410;28;20058;-94
2022/12/06 11:46:13;;;;;;;58.05;52.42;;;;;;;6.71;100.00;101564.41;5155531;27;20083;-95
2022/12/06 11:48:40;;;;;;;60.78;54.55;;;;;;;6.79;100.00;101559.16;5142401;28;20107;-95
2022/12/06 11:51:15;;;;;;;62.25;55.90;;;;;;;7.11;100.00;101557.63;5142010;28;20027;-96
2022/12/06 11:53:54;;;;;;;58.00;52.25;;;;;;;7.13;100.00;101562.72;5132960;28;20032;-95
2022/12/06 11:56:25;;;;;;;57.95;52.17;;;;;;;7.32;100.00;101552.69;5133350;28;20051;-95
2022/12/06 11:59:00;;;;;;;60.00;53.92;;;;;;;7.51;100.00;101548.06;5141374;28;20043;-96
2022/12/06 12:01:39;;;;;;;60.40;54.63;;;;;;;7.43;100.00;101534.84;5141570;28;20051;-96
2022/12/06 12:04:32;;;;;;;60.20;54.15;;;;;;;7.04;100.00;101536.28;5131465;28;20095;-95
2022/12/06 12:07:02;;;;;;;;;;;;;;;7.08;100.00;101542.91;5130925;28;20164;-95
2022/12/06 12:09:33;;;;;;;59.47;53.55;;;;;;;7.33;100.00;101540.28;5141136;27;19960;-95
2022/12/06 12:12:04;;;;;;;59.45;53.67;;;;;;;7.49;100.00;101552.69;5142110;28;20058;-94
2022/12/06 12:14:37;;;;;;;64.30;57.88;;;;;;;7.44;100.00;101544.41;5141188;28;20038;-95
2022/12/06 12:17:13;;;;;;;64.03;57.75;;;;;;;7.20;100.00;101551.34;5141384;27;20035;-95
2022/12/06 12:19:45;;;;;;;64.53;57.70;;;;;;;7.12;100.00;101553.97;5140948;28;20052;-95
2022/12/06 12:22:25;;;;;;;60.40;53.90;;;;;;;7.21;100.00;101542.44;5141017;28;20055;-96
2022/12/06 12:24:53;;;;;;;58.15;52.10;;;;;;;7.23;100.00;101542.25;5140803;27;20050;-95
2022/12/06 12:27:33;;;;;;;59.03;52.75;;;;;;;7.36;100.00;101547.91;5141842;27;20052;-96
2022/12/06 12:30:38;;;;;;;61.25;54.97;;;;;;;7.23;100.00;101536.97;5141112;27;20031;-95
2022/12/06 12:33:27;;;;;;;62.95;55.63;;;;;;;7.24;100.00;101530.72;5113677;28;20028;-95
2022/12/06 12:36:08;;;;;;;62.55;55.83;;;;;;;7.31;100.00;101527.22;5140767;28;20030;-95
2022/12/06 12:38:42;;;;;;;57.80;52.00;;;;;;;7.40;100.00;101532.53;5128702;28;20023;-94
2022/12/06 12:41:23;;;;;;;57.97;52.03;;;;;;;7.38;100.00;101524.75;5132980;28;20034;-95
2022/12/06 12:43:58;;;;;;;58.60;53.00;;;;;;;7.38;100.00;101523.94;5119291;28;20062;-94
2022/12/06 12:46:27;;;;;;;62.53;55.85;;;;;;;7.20;100.00;101509.06;5140496;28;20054;-95
2022/12/06 12:48:55;;;;;;;61.13;53.67;;;;;;;7.11;100.00;101507.41;5122751;28;20057;-95
2022/12/06 12:51:33;;;;;;;55.92;50.42;;;;;;;7.30;100.00;101493.88;5140623;28;20039;-95
2022/12/06 12:54:05;;;;;;;62.50;56.50;;;;;;;7.94;100.00;101499.25;5140059;28;20057;-94
2022/12/06 12:56:36;;;;;;;59.47;53.75;;;;;;;9.07;100.00;101490.91;5140898;28;20055;-95
2022/12/06 12:59:12;;;;;;;55.95;50.40;;;;;;;9.53;100.00;101492.69;5139241;28;20037;-96
2022/12/06 13:01:43;;;;;;;56.60;51.45;;;;;;;8.54;100.00;101500.53;5140173;28;20031;-94
2022/12/06 13:04:30;;;;;;;56.47;51.13;;;;;;;8.29;100.00;101504.25;5135806;28;20023;-95
2022/12/06 13:07:01;;;;;;;57.33;51.55;;;;;;;8.27;100.00;101515.03;5140018;28;20056;-95
2022/12/06 13:09:36;;;;;;;65.63;58.78;;;;;;;7.93;100.00;101497.59;5137544;28;20024;-95
2022/12/06 13:12:06;;;;;;;64.43;57.92;;;;;;;7.80;100.00;101499.94;5123989;28;20051;-94
2022/12/06 13:14:35;;;;;;;61.50;55.55;;;;;;;7.54;100.00;101484.28;5132471;28;20054;-95
2022/12/06 13:17:07;;;;;;;67.15;60.60;;;;;;;7.70;100.00;101478.97;5137597;28;20047;-95
2022/12/06 13:19:38;;;;;;;64.72;57.60;;;;;;;7.65;100.00;101485.75;5139762;27;20054;-96
2022/12/06 13:22:07;;;;;;;62.65;56.30;;;;;;;7.45;100.00;101487.94;5139183;27;20058;-95
2022/12/06 13:24:37;;;;;;;65.55;58.80;;;;;;;7.50;100.00;101501.44;5139260;28;20041;-94
2022/12/06 13:27:13;;;;;;;79.60;67.75;;;;;;;7.18;100.00;101500.47;5140387;28;20031;-95
2022/12/06 13:29:45;;;;;;;73.75;65.85;;;;;;;6.99;100.00;101492.84;5139834;28;20034;-94
2022/12/06 13:32:15;;;;;;;71.15;63.58;;;;;;;7.22;100.00;101503.63;5138091;28;20081;-96
2022/12/06 13:34:50;;;;;;;63.50;56.80;;;;;;;7.20;100.00;101502.94;5116537;28;20052;-93
2022/12/06 13:37:34;;;;;;;66.35;57.42;;;;;;;7.20;100.00;101490.59;5112377;28;20118;-94
2022/12/06 13:40:04;;;;;;;63.05;56.92;;;;;;;7.18;100.00;101492.56;5125142;28;20037;-94
2022/12/06 13:42:44;;;;;;;83.55;71.90;;;;;;;6.92;100.00;101502.44;5120699;28;20035;-94
2022/12/06 13:45:44;;;;;;;69.07;61.63;;;;;;;6.98;100.00;101507.88;5126280;28;20027;-95
2022/12/06 13:48:35;;;;;;;67.72;59.15;;;;;;;6.97;100.00;101492.22;5125613;28;20028;-95
2022/12/06 13:51:04;;;;;;;68.80;59.65;;;;;;;7.06;100.00;101502.63;5130429;28;20047;-95
2022/12/06 13:53:33;;;;;;;75.10;65.13;;;;;;;6.89;100.00;101506.22;5131117;28;20087;-94
2022/12/06 13:56:02;;;;;;;75.78;62.80;;;;;;;6.85;100.00;101511.00;5120275;28;20040;-95
2022/12/06 13:58:50;;;;;;;70.90;60.58;;;;;;;6.89;100.00;101514.97;5125546;28;20028;-96
2022/12/06 14:01:40;;;;;;;86.50;66.80;;;;;;;6.79;100.00;101505.53;5122403;28;20043;-95
2022/12/06 14:04:33;;;;;;;67.57;60.10;;;;;;;6.82;100.00;101507.84;5120365;28;20062;-94
2022/12/06 14:07:01;;;;;;;;;;;;;;;6.76;100.00;101496.13;5127468;28;20068;-95
2022/12/06 14:09:36;;;;;;;76.63;60.38;;;;;;;6.68;100.00;101488.19;5139029;27;19904;-96
2022/12/06 14:12:17;;;;;;;70.05;59.63;;;;;;;6.66;100.00;101492.81;5120301;28;20044;-95
2022/12/06 14:14:55;;;;;;;69.53;57.35;;;;;;;6.61;100.00;101484.53;5112643;28;20029;-95
2022/12/06 14:17:26;;;;;;;80.15;59.83;;;;;;;6.60;100.00;101498.75;5118122;28;20048;-95
2022/12/06 14:19:54;;;;;;;67.65;57.25;;;;;;;6.57;100.00;101497.25;5134646;28;20039;-95
2022/12/06 14:22:23;;;;;;;76.15;61.30;;;;;;;6.57;100.00;101496.41;5122791;28;20051;-95
2022/12/06 14:25:01;;;;;;;85.20;66.65;;;;;;;6.53;100.00;101490.59;5122691;28;20031;-96
2022/12/06 14:27:31;;;;;;;96.70;71.75;;;;;;;6.55;100.00;101503.66;5118766;28;20028;-95
2022/12/06 14:30:03;;;;;;;100.00;71.28;;;;;;;6.46;100.00;101489.59;5129291;28;20024;-95
2022/12/06 14:32:35;;;;;;;87.68;67.95;;;;;;;6.51;100.00;101504.97;5134930;28;20048;-95
2022/12/06 14:35:04;;;;;;;74.70;60.35;;;;;;;6.42;100.00;101491.75;5117577;28;20087;-95
2022/12/06 14:37:31;;;;;;;96.90;70.00;;;;;;;6.34;100.00;101482.97;5114717;28;20036;-95
2022/12/06 14:40:20;;;;;;;97.65;67.22;;;;;;;6.33;100.00;101494.53;5132958;28;20092;-95
2022/12/06 14:43:03;;;;;;;77.78;60.78;;;;;;;6.36;100.00;101495.03;5113874;28;20093;-95
2022/12/06 14:45:31;;;;;;;;;;;;;;;6.32;100.00;101498.94;5115975;28;20024;-96
2022/12/06 14:47:58;;;;;;;103.57;68.72;;;;;;;6.31;100.00;101496.47;5121464;28;19943;-95
2022/12/06 14:50:31;;;;;;;82.53;60.58;;;;;;;6.42;100.00;101494.38;5127587;27;20044;-96
2022/12/06 14:52:59;;;;;;;;;;;;;;;6.45;100.00;101492.41;5131633;28;20035;-96
2022/12/06 14:55:29;;;;;;;69.40;55.05;;;;;;;6.30;100.00;101487.75;5120368;27;19910;-95
2022/12/06 17:25:02;;;;;;;69.05;53.75;;;;;;;5.85;100.00;101424.72;5170815;27;20403;-94
2022/12/06 17:27:29;;;;;;;70.07;55.92;;;;;;;5.87;100.00;101436.75;5150092;27;20054;-94
2022/12/06 17:29:56;;;;;;;67.65;54.80;;;;;;;6.02;100.00;101439.66;5149471;27;20024;-94
2022/12/06 17:32:23;;;;;;;71.88;57.88;;;;;;;5.85;100.00;101419.44;5153441;27;20028;-94
2022/12/06 17:34:50;;;;;;;72.05;58.70;;;;;;;5.89;100.00;101432.13;5155239;27;20054;-95
2022/12/06 17:52:39;;;;;;;69.68;57.45;;;;;;;5.83;100.00;101419.56;5034866;28;20111;-91
